Aviation Digital Data Service (ADDS)

Output produced by METARs form (0410 UTC 24 January 2019)
found at http://www.aviationweather.gov/metar/data/
 
Forecast for: NWWM (MAGENTA , NC)
Text: TAF NWWM 231700Z 2318/2418 09008KT 9999 FEW035
Forecast period: 1800 to 2200 UTC 23 January 2019
Forecast type: FROM: standard forecast or significant change
Winds: from the E (90 degrees) at 9 MPH (8 knots; 4.1 m/s)
Visibility: 6 or more miles 10+ km)
Ceiling: at least 12,000 feet AGL
Clouds: few clouds at 3500 feet AGL
Weather: no significant weather forecast for this period
Text: BECMG 2322/2401 13018KT
Forecast period: 2200 UTC 23 January 2019 to 1800 UTC 24 January 2019
Forecast type: BECOMING: Conditions expected to become as follows by 0100 UTC 24 January 2019
Winds: from the SE (130 degrees) at 21 MPH (18 knots; 9.3 m/s)
Visibility: 6 or more miles 10+ km)
Ceiling: at least 12,000 feet AGL
Clouds: few clouds at 3500 feet AGL
Weather: no significant weather forecast for this period